Time;durP1;ratioP1;P1;durP2;ratioP2;P2;SDS_P1;SDS_P2;PMS_P1;PMS_P2;Temp;Humidity;BMP_temperature;BMP_pressure;BME280_temperature;BME280_humidity;BME280_pressure;Samples;Min_cycle;Max_cycle;Signal;HPM_P1;HPM_P2
2024/01/04 00:02:12;;;;;;;3.42;0.80;;;;;;;18.87;46.30;99427.19;5007798;28;20040;-69
2024/01/04 00:04:40;;;;;;;2.90;0.60;;;;;;;18.77;46.63;99414.13;5008854;28;20525;-69
2024/01/04 00:07:05;;;;;;;2.97;0.90;;;;;;;18.78;46.45;99421.03;5008700;28;20030;-69
2024/01/04 00:09:30;;;;;;;2.10;0.80;;;;;;;18.75;46.61;99420.53;5008682;28;20032;-69
2024/01/04 00:11:56;;;;;;;3.20;0.80;;;;;;;18.74;46.32;99430.28;5008672;28;20732;-70
2024/01/04 00:14:21;;;;;;;3.80;0.90;;;;;;;18.81;46.29;99454.19;5008114;28;20267;-69
2024/01/04 00:16:46;;;;;;;3.42;0.73;;;;;;;18.70;46.38;99433.41;5008730;28;20068;-69
2024/01/04 00:19:11;;;;;;;2.95;0.80;;;;;;;18.70;46.42;99454.50;5008536;28;20026;-70
2024/01/04 00:21:37;;;;;;;2.72;0.73;;;;;;;18.68;46.59;99454.69;5008571;28;20029;-69
2024/01/04 00:24:03;;;;;;;3.42;0.90;;;;;;;18.75;46.35;99473.31;5007994;28;20038;-68
2024/01/04 00:26:28;;;;;;;3.03;0.80;;;;;;;18.66;46.67;99472.50;5007199;28;20466;-68
2024/01/04 00:28:53;;;;;;;3.05;1.08;;;;;;;18.73;46.54;99491.94;5006760;28;21088;-69
2024/01/04 00:31:19;;;;;;;3.22;0.90;;;;;;;18.74;46.58;99498.91;5022497;28;20034;-69
2024/01/04 00:33:44;;;;;;;3.67;1.23;;;;;;;18.62;46.47;99487.78;5006866;28;20038;-68
2024/01/04 00:36:10;;;;;;;3.58;1.42;;;;;;;18.63;46.53;99507.94;5007650;28;20041;-68
2024/01/04 00:38:35;;;;;;;3.55;1.10;;;;;;;18.64;46.62;99511.38;5006997;28;20037;-68
2024/01/04 00:41:01;;;;;;;3.50;1.15;;;;;;;18.70;46.41;99521.31;5007899;28;20040;-68
2024/01/04 00:43:26;;;;;;;1.92;0.82;;;;;;;18.61;46.47;99511.69;5007700;28;20053;-68
2024/01/04 00:45:52;;;;;;;3.27;1.03;;;;;;;18.70;46.44;99541.59;5007345;28;20085;-68
2024/01/04 00:48:17;;;;;;;2.90;0.80;;;;;;;18.66;46.43;99539.28;5007653;28;20266;-68
2024/01/04 00:50:42;;;;;;;2.63;0.77;;;;;;;18.58;46.23;99528.69;5007826;28;20406;-68
2024/01/04 00:53:08;;;;;;;2.05;0.65;;;;;;;18.60;46.44;99537.28;5007199;28;20041;-69
2024/01/04 00:55:33;;;;;;;1.85;0.60;;;;;;;18.66;46.37;99564.84;5007769;28;20080;-68
2024/01/04 00:57:58;;;;;;;2.25;0.68;;;;;;;18.63;46.43;99565.16;5007753;28;20116;-68
2024/01/04 01:00:23;;;;;;;3.03;0.80;;;;;;;18.59;46.06;99567.28;5007524;28;20034;-68
2024/01/04 01:02:49;;;;;;;2.28;0.75;;;;;;;18.63;46.34;99575.72;5006906;28;20036;-67
2024/01/04 01:05:14;;;;;;;2.92;0.73;;;;;;;18.60;46.13;99570.75;5022435;28;20067;-68
2024/01/04 01:07:39;;;;;;;2.30;0.77;;;;;;;18.54;46.29;99577.47;5007073;28;20030;-68
2024/01/04 01:10:05;;;;;;;2.87;0.77;;;;;;;18.53;46.23;99578.44;5007330;28;20021;-68
2024/01/04 01:12:30;;;;;;;3.30;0.82;;;;;;;18.53;45.83;99575.00;5007303;28;20636;-68
2024/01/04 01:14:55;;;;;;;1.85;0.70;;;;;;;18.54;46.41;99590.66;5007249;28;20037;-69
2024/01/04 01:17:21;;;;;;;2.00;0.77;;;;;;;18.45;46.18;99576.63;5007347;28;20030;-68
2024/01/04 01:19:46;;;;;;;2.70;0.80;;;;;;;18.58;46.24;99599.94;5007059;28;20275;-69
2024/01/04 01:22:11;;;;;;;3.50;0.80;;;;;;;18.49;46.17;99595.59;5007475;28;20030;-68
2024/01/04 01:24:37;;;;;;;2.08;0.70;;;;;;;18.57;46.12;99613.28;5007161;28;20034;-69
2024/01/04 01:27:02;;;;;;;2.60;0.80;;;;;;;18.47;46.20;99597.56;5006492;28;20029;-68
2024/01/04 01:29:27;;;;;;;2.33;0.60;;;;;;;18.46;46.37;99602.00;5006264;28;20758;-68
2024/01/04 01:31:53;;;;;;;3.50;0.73;;;;;;;18.51;46.45;99609.44;5006186;28;20036;-68
2024/01/04 01:34:18;;;;;;;2.80;0.95;;;;;;;18.50;46.27;99623.66;5006304;28;20038;-69
2024/01/04 01:36:43;;;;;;;4.60;0.90;;;;;;;18.49;46.24;99629.91;5006458;28;20034;-69
2024/01/04 01:39:09;;;;;;;4.22;0.90;;;;;;;18.53;46.33;99635.69;5006031;28;20263;-69
2024/01/04 01:41:34;;;;;;;1.83;0.60;;;;;;;18.44;46.24;99632.19;5007011;28;20033;-70
2024/01/04 01:43:59;;;;;;;2.05;0.70;;;;;;;18.50;46.05;99644.75;5007020;28;20529;-70
2024/01/04 01:46:25;;;;;;;2.63;0.90;;;;;;;18.48;46.11;99641.41;5006533;28;20060;-69
2024/01/04 01:48:50;;;;;;;2.90;0.70;;;;;;;18.43;46.24;99646.34;5006688;28;20065;-70
2024/01/04 01:51:15;;;;;;;2.72;0.68;;;;;;;18.51;46.20;99661.41;5007074;28;20907;-70
2024/01/04 01:53:41;;;;;;;2.35;0.75;;;;;;;18.46;46.28;99661.84;5007393;28;20474;-69
2024/01/04 01:56:07;;;;;;;2.88;0.52;;;;;;;18.46;46.31;99672.41;5007444;28;20489;-70
2024/01/04 01:58:32;;;;;;;3.10;0.70;;;;;;;18.39;46.12;99663.44;5006670;28;20038;-70
2024/01/04 02:00:58;;;;;;;2.65;0.90;;;;;;;18.48;46.05;99681.84;5006907;28;20034;-68
2024/01/04 02:03:23;;;;;;;3.03;0.82;;;;;;;18.39;46.20;99666.94;5005934;28;20104;-69
2024/01/04 02:05:48;;;;;;;2.08;0.82;;;;;;;18.37;46.14;99671.50;5006870;28;20171;-69
2024/01/04 02:08:14;;;;;;;4.55;0.75;;;;;;;18.41;46.12;99679.97;5006461;28;20065;-69
2024/01/04 02:10:39;;;;;;;3.58;0.90;;;;;;;18.46;46.17;99693.53;5005883;28;20033;-69
2024/01/04 02:13:05;;;;;;;3.40;0.70;;;;;;;18.34;46.28;99682.41;5006219;28;20040;-70
2024/01/04 02:15:30;;;;;;;2.72;0.70;;;;;;;18.35;46.15;99689.31;5006191;28;20037;-69
2024/01/04 02:17:56;;;;;;;4.10;0.95;;;;;;;18.32;46.08;99681.72;5006209;28;20118;-69
2024/01/04 02:20:21;;;;;;;3.03;0.80;;;;;;;18.36;46.16;99700.69;5004593;28;20057;-69
2024/01/04 02:22:48;;;;;;;3.88;0.80;;;;;;;18.33;45.89;99704.47;5005734;28;20022;-69
2024/01/04 02:25:13;;;;;;;2.88;0.80;;;;;;;18.35;46.14;99709.59;5005962;28;20113;-69
2024/01/04 02:27:38;;;;;;;2.80;0.88;;;;;;;18.39;45.92;99727.59;5005371;28;20109;-70
2024/01/04 02:30:04;;;;;;;3.67;0.95;;;;;;;18.41;46.06;99728.28;5006085;28;20062;-70
2024/01/04 02:32:30;;;;;;;3.15;0.90;;;;;;;18.34;46.21;99707.94;5005981;28;20033;-68
2024/01/04 02:34:55;;;;;;;3.73;0.90;;;;;;;18.39;46.08;99722.31;5005636;28;20068;-68
2024/01/04 02:37:20;;;;;;;4.10;0.90;;;;;;;18.28;46.11;99717.31;5005816;28;20267;-69
2024/01/04 02:39:45;;;;;;;2.88;0.80;;;;;;;18.29;45.90;99721.56;5006133;28;20088;-69
2024/01/04 02:42:11;;;;;;;3.22;0.80;;;;;;;18.28;45.95;99720.75;5006147;28;20038;-69
2024/01/04 02:44:36;;;;;;;4.45;0.90;;;;;;;18.30;45.93;99737.25;5006304;28;20033;-69
2024/01/04 02:47:01;;;;;;;3.60;0.98;;;;;;;18.27;46.06;99732.28;5006342;28;20034;-69
2024/01/04 02:49:27;;;;;;;2.58;0.70;;;;;;;18.36;45.86;99748.16;5006602;28;20030;-68
2024/01/04 02:51:52;;;;;;;2.90;0.77;;;;;;;18.36;45.79;99746.38;5006254;28;20037;-69
2024/01/04 02:54:17;;;;;;;3.42;1.23;;;;;;;18.33;45.79;99748.50;5009207;28;20104;-68
2024/01/04 02:56:43;;;;;;;3.20;0.90;;;;;;;18.26;45.68;99743.81;5009109;28;20038;-69
2024/01/04 02:59:08;;;;;;;2.38;0.80;;;;;;;18.30;46.11;99745.16;5008857;28;20041;-68
2024/01/04 03:01:33;;;;;;;3.28;1.00;;;;;;;18.22;45.83;99737.19;5008887;28;20046;-69
2024/01/04 03:03:58;;;;;;;2.22;0.70;;;;;;;18.33;45.93;99759.06;5008179;28;20398;-69
2024/01/04 03:06:25;;;;;;;3.92;0.82;;;;;;;18.26;45.80;99758.81;5008717;28;20033;-68
2024/01/04 03:08:51;;;;;;;1.83;0.60;;;;;;;18.31;45.76;99769.75;5008588;28;20089;-68
2024/01/04 03:11:17;;;;;;;1.58;0.50;;;;;;;18.23;45.61;99761.75;5008787;28;20410;-68
2024/01/04 03:13:43;;;;;;;2.35;0.85;;;;;;;18.21;45.84;99769.81;5008609;28;20486;-69
2024/01/04 03:16:08;;;;;;;1.65;0.60;;;;;;;18.29;45.54;99787.50;5008797;28;20042;-70
2024/01/04 03:18:34;;;;;;;2.58;0.73;;;;;;;18.27;45.79;99785.03;5008729;28;20171;-69
2024/01/04 03:21:01;;;;;;;2.97;0.77;;;;;;;18.28;45.67;99796.44;5008862;28;20116;-69
2024/01/04 03:23:26;;;;;;;1.77;0.65;;;;;;;18.21;45.74;99782.16;5008341;28;20118;-69
2024/01/04 03:25:53;;;;;;;2.95;0.85;;;;;;;18.22;45.57;99787.28;5008448;28;20120;-70
2024/01/04 03:28:18;;;;;;;2.13;0.70;;;;;;;18.27;45.84;99800.84;5008732;28;20037;-69
2024/01/04 03:30:44;;;;;;;3.20;0.80;;;;;;;18.22;45.49;99791.75;5008519;28;20030;-69
2024/01/04 03:33:09;;;;;;;4.13;0.70;;;;;;;18.22;45.88;99797.03;5008535;28;20037;-68
2024/01/04 03:35:34;;;;;;;1.85;0.70;;;;;;;18.22;45.54;99799.66;5008278;28;20034;-68
2024/01/04 03:38:00;;;;;;;3.15;0.73;;;;;;;18.20;45.64;99799.81;5008276;28;20574;-69
2024/01/04 03:40:25;;;;;;;4.10;0.68;;;;;;;18.16;45.68;99805.53;5008369;28;20034;-69
2024/01/04 03:42:51;;;;;;;2.33;0.80;;;;;;;18.22;45.87;99816.31;5023203;28;20494;-69
2024/01/04 03:45:16;;;;;;;1.77;0.70;;;;;;;18.18;45.63;99808.84;5008263;28;20046;-69
2024/01/04 03:47:41;;;;;;;2.95;0.60;;;;;;;18.24;46.24;99824.88;5008463;28;20034;-69
2024/01/04 03:50:07;;;;;;;2.00;0.70;;;;;;;18.24;45.53;99829.34;5008084;28;20030;-69
2024/01/04 03:52:32;;;;;;;2.58;0.70;;;;;;;18.21;45.85;99827.00;5023183;28;20652;-69
2024/01/04 03:54:58;;;;;;;1.65;0.57;;;;;;;18.24;45.70;99829.34;5008505;28;20037;-70
2024/01/04 03:57:23;;;;;;;2.88;0.77;;;;;;;18.23;45.94;99828.53;5008737;28;20034;-69
2024/01/04 03:59:48;;;;;;;1.83;0.57;;;;;;;18.22;45.71;99833.94;5008562;28;20544;-70
2024/01/04 04:02:14;;;;;;;1.58;0.63;;;;;;;18.15;45.65;99815.25;5008072;28;20040;-69
2024/01/04 04:04:39;;;;;;;3.85;0.75;;;;;;;18.16;45.71;99819.53;5008180;28;20041;-69
2024/01/04 04:07:04;;;;;;;3.20;1.02;;;;;;;18.23;45.71;99835.59;5008440;28;20040;-70
2024/01/04 04:09:30;;;;;;;1.02;0.63;;;;;;;18.13;45.87;99831.22;5008501;28;20037;-69
2024/01/04 04:11:55;;;;;;;3.83;0.75;;;;;;;18.20;45.86;99849.06;5007708;28;20387;-69
2024/01/04 04:14:21;;;;;;;2.50;0.90;;;;;;;18.19;45.61;99842.97;5007407;28;20121;-69
2024/01/04 04:16:46;;;;;;;3.55;1.00;;;;;;;18.21;45.67;99853.38;5007575;28;20041;-69
2024/01/04 04:19:11;;;;;;;2.30;0.90;;;;;;;18.21;45.79;99858.66;5007705;28;20039;-69
2024/01/04 04:21:37;;;;;;;2.33;0.70;;;;;;;18.21;45.97;99861.28;5007584;28;20524;-69
2024/01/04 04:24:02;;;;;;;2.17;0.75;;;;;;;18.10;45.92;99849.13;5007144;28;20455;-70
2024/01/04 04:26:27;;;;;;;3.53;1.10;;;;;;;18.11;45.75;99854.25;5007226;28;20042;-69
2024/01/04 04:28:53;;;;;;;1.88;0.95;;;;;;;18.18;45.82;99875.59;5007619;28;20442;-69
2024/01/04 04:31:19;;;;;;;3.28;1.08;;;;;;;18.18;45.66;99877.41;5007192;28;20042;-69
2024/01/04 04:33:45;;;;;;;3.67;1.13;;;;;;;18.19;45.94;99886.97;5007317;28;20383;-69
2024/01/04 04:36:11;;;;;;;3.60;1.00;;;;;;;18.18;45.93;99882.66;5007252;28;20018;-69
2024/01/04 04:38:37;;;;;;;3.15;1.08;;;;;;;18.17;45.94;99878.41;5007151;28;20604;-70
2024/01/04 04:41:06;;;;;;;4.32;1.00;;;;;;;18.13;45.69;99878.69;5007487;28;20030;-69
2024/01/04 04:43:32;;;;;;;2.53;0.90;;;;;;;18.15;45.94;99883.81;5006934;28;20030;-69
2024/01/04 04:45:58;;;;;;;3.40;1.02;;;;;;;18.17;45.93;99894.22;5006637;28;20521;-69
2024/01/04 04:48:23;;;;;;;3.75;1.00;;;;;;;18.08;46.01;99888.81;5007333;28;20069;-69
2024/01/04 04:50:53;;;;;;;3.47;0.93;;;;;;;18.15;45.85;99891.72;5006826;28;20053;-69
2024/01/04 04:53:18;;;;;;;1.77;0.73;;;;;;;18.14;45.99;99895.34;5006612;28;20064;-69
2024/01/04 04:55:44;;;;;;;2.60;0.80;;;;;;;18.15;45.72;99904.06;5006924;28;20069;-69
2024/01/04 04:58:09;;;;;;;2.28;0.88;;;;;;;18.15;45.67;99904.06;5006836;28;21012;-69
2024/01/04 05:00:35;;;;;;;2.13;0.82;;;;;;;18.13;45.74;99905.06;5006567;28;20091;-69
2024/01/04 05:03:00;;;;;;;3.15;1.08;;;;;;;18.04;45.95;99895.41;5006001;28;20125;-70
2024/01/04 05:05:26;;;;;;;2.72;0.90;;;;;;;18.13;45.88;99912.97;5006420;28;20125;-68
2024/01/04 05:07:51;;;;;;;2.47;0.80;;;;;;;18.13;45.79;99914.75;5006797;28;20038;-67
2024/01/04 05:10:16;;;;;;;3.55;0.90;;;;;;;18.10;45.96;99913.25;5006477;28;20026;-68
2024/01/04 05:12:42;;;;;;;2.33;0.80;;;;;;;18.00;46.13;99901.91;5006709;28;20458;-68
2024/01/04 05:15:07;;;;;;;2.05;0.80;;;;;;;18.08;46.03;99912.56;5006091;28;20061;-69
2024/01/04 05:17:33;;;;;;;3.75;1.10;;;;;;;18.00;46.15;99901.91;5007171;28;20430;-69
2024/01/04 05:20:00;;;;;;;2.40;0.83;;;;;;;18.00;45.88;99903.75;5006495;28;20026;-67
2024/01/04 05:22:25;;;;;;;2.45;1.02;;;;;;;18.06;45.86;99922.44;5006583;28;20262;-69
2024/01/04 05:24:51;;;;;;;3.47;1.10;;;;;;;18.10;46.11;99925.59;5007104;28;20471;-68
2024/01/04 05:27:16;;;;;;;3.22;0.98;;;;;;;18.08;46.01;99923.09;5006509;28;20038;-68
2024/01/04 05:29:41;;;;;;;3.50;1.10;;;;;;;18.09;46.04;99934.50;5006815;28;20041;-69
2024/01/04 05:32:07;;;;;;;2.97;1.20;;;;;;;17.98;45.95;99922.34;5006486;28;20394;-68
2024/01/04 05:34:32;;;;;;;3.05;1.00;;;;;;;18.06;46.02;99934.78;5005870;28;20030;-68
2024/01/04 05:37:00;;;;;;;2.40;0.95;;;;;;;18.02;45.96;99934.22;5006282;28;20383;-68
2024/01/04 05:39:26;;;;;;;2.80;0.85;;;;;;;18.09;45.82;99950.31;5006535;28;20092;-68
2024/01/04 05:41:51;;;;;;;2.83;0.85;;;;;;;18.08;45.94;99952.09;5006766;28;20474;-69
2024/01/04 05:44:17;;;;;;;2.72;0.93;;;;;;;18.08;45.82;99952.09;5006498;28;20025;-69
2024/01/04 05:46:42;;;;;;;2.70;0.88;;;;;;;18.04;45.88;99947.28;5006423;28;20165;-69
2024/01/04 05:49:08;;;;;;;2.67;0.70;;;;;;;18.07;45.49;99966.28;5006418;28;20386;-69
2024/01/04 05:51:33;;;;;;;2.42;0.70;;;;;;;18.06;45.32;99967.25;5006281;28;20105;-69
2024/01/04 05:53:58;;;;;;;1.93;0.80;;;;;;;18.06;45.67;99964.63;5005804;28;20065;-69
2024/01/04 05:56:24;;;;;;;2.00;1.00;;;;;;;18.03;45.66;99959.63;5006965;28;20278;-69
2024/01/04 05:58:49;;;;;;;2.95;0.70;;;;;;;18.02;45.56;99970.31;5006354;28;20046;-69
2024/01/04 06:01:15;;;;;;;1.70;0.60;;;;;;;17.99;45.61;99970.59;5006477;28;20481;-69
2024/01/04 06:03:40;;;;;;;2.05;0.65;;;;;;;17.93;45.72;99967.59;5005562;28;20030;-69
2024/01/04 06:06:05;;;;;;;1.92;0.63;;;;;;;18.01;45.72;99987.97;5006398;28;20046;-69
2024/01/04 06:08:31;;;;;;;2.17;0.65;;;;;;;18.00;45.75;99982.81;5006210;28;20033;-69
2024/01/04 06:10:56;;;;;;;1.35;0.60;;;;;;;17.92;45.93;99975.63;5006203;28;20429;-69
2024/01/04 06:13:26;;;;;;;2.15;0.70;;;;;;;17.96;45.69;99982.28;5006528;28;20029;-69
2024/01/04 06:15:52;;;;;;;1.77;0.65;;;;;;;18.06;46.09;100005.97;5006079;28;20025;-68
2024/01/04 06:18:18;;;;;;;2.05;0.65;;;;;;;18.07;46.01;100013.75;5005641;28;20029;-69
2024/01/04 06:20:43;;;;;;;1.80;0.70;;;;;;;18.11;46.09;100011.66;5006073;28;20072;-69
2024/01/04 06:23:08;;;;;;;2.83;0.70;;;;;;;18.03;45.95;99999.19;5005897;28;20022;-69
2024/01/04 06:25:34;;;;;;;1.77;0.60;;;;;;;18.02;46.06;99997.50;5021048;28;20037;-69
2024/01/04 06:27:59;;;;;;;1.48;0.57;;;;;;;18.14;46.17;100014.00;5007437;28;20117;-68
2024/01/04 06:30:24;;;;;;;1.23;0.60;;;;;;;18.10;46.08;100002.91;5010010;28;20037;-69
2024/01/04 06:32:50;;;;;;;2.65;0.60;;;;;;;18.15;45.94;100009.53;5009966;28;20030;-69
2024/01/04 06:35:15;;;;;;;1.60;0.57;;;;;;;18.23;46.15;100017.56;5009899;28;20034;-69
2024/01/04 06:37:40;;;;;;;1.48;0.40;;;;;;;18.26;46.02;100025.19;5009564;28;20037;-69
2024/01/04 06:40:08;;;;;;;1.73;0.60;;;;;;;18.30;46.20;100022.09;5009696;28;20034;-69
2024/01/04 06:42:36;;;;;;;1.20;0.50;;;;;;;18.31;46.04;100026.41;5009824;28;20450;-69
2024/01/04 06:45:02;;;;;;;1.60;0.50;;;;;;;18.35;45.87;100028.78;5009252;28;20548;-68
2024/01/04 06:47:27;;;;;;;1.75;0.60;;;;;;;18.33;45.68;100026.28;5009517;28;20468;-69
2024/01/04 06:49:53;;;;;;;2.08;0.60;;;;;;;18.31;45.86;100031.69;5009088;28;20129;-69
2024/01/04 06:52:18;;;;;;;2.93;0.70;;;;;;;18.43;45.89;100050.78;5009762;28;20084;-69
2024/01/04 06:54:43;;;;;;;2.92;0.70;;;;;;;18.44;46.04;100051.66;5009352;28;20275;-69
2024/01/04 06:57:08;;;;;;;1.07;0.50;;;;;;;18.46;46.11;100058.41;5009303;28;20030;-69
2024/01/04 06:59:34;;;;;;;1.40;0.50;;;;;;;18.39;45.78;100044.16;5009230;28;20307;-69
2024/01/04 07:01:59;;;;;;;1.40;0.40;;;;;;;18.41;45.79;100049.28;5008518;28;20816;-70
2024/01/04 07:04:25;;;;;;;1.90;0.60;;;;;;;18.47;45.88;100059.25;5009525;28;20050;-68
2024/01/04 07:06:50;;;;;;;2.00;0.60;;;;;;;18.44;45.57;100062.19;5009262;28;20295;-68
2024/01/04 07:09:16;;;;;;;1.50;0.52;;;;;;;18.52;45.86;100074.63;5008785;28;20822;-68
2024/01/04 07:11:41;;;;;;;2.10;0.60;;;;;;;18.52;45.91;100080.75;5008963;28;20037;-68
2024/01/04 07:14:08;;;;;;;2.10;0.60;;;;;;;18.43;45.89;100061.34;5008672;28;20573;-69
2024/01/04 07:16:33;;;;;;;1.52;0.50;;;;;;;18.49;45.87;100081.06;5009139;28;20748;-68
2024/01/04 07:18:59;;;;;;;1.52;0.50;;;;;;;18.48;45.94;100077.59;5008827;28;20034;-68
2024/01/04 07:21:24;;;;;;;1.87;0.50;;;;;;;18.52;45.78;100091.31;5008776;28;20038;-68
2024/01/04 07:23:50;;;;;;;1.33;0.47;;;;;;;18.43;45.82;100071.06;5008621;28;20256;-68
2024/01/04 07:26:15;;;;;;;0.98;0.40;;;;;;;18.53;45.70;100089.50;5008763;28;20767;-68
2024/01/04 07:28:40;;;;;;;1.98;0.60;;;;;;;18.49;45.60;100086.31;5008807;28;20037;-68
2024/01/04 07:31:08;;;;;;;2.30;0.50;;;;;;;18.45;45.81;100083.16;5009426;28;20026;-69
2024/01/04 07:33:33;;;;;;;1.42;0.50;;;;;;;18.44;45.84;100083.31;5009168;28;20033;-68
2024/01/04 07:35:59;;;;;;;2.43;0.77;;;;;;;18.48;45.57;100098.69;5008897;28;20037;-69
2024/01/04 07:38:24;;;;;;;0.55;0.40;;;;;;;18.48;45.94;100096.06;5008617;28;20756;-69
2024/01/04 07:40:50;;;;;;;1.50;0.40;;;;;;;18.46;45.86;100087.44;5009311;28;20114;-69
2024/01/04 07:43:15;;;;;;;1.80;0.57;;;;;;;18.42;45.64;100088.72;5008208;28;20270;-68
2024/01/04 07:45:40;;;;;;;1.65;0.50;;;;;;;18.38;45.91;100089.16;5007924;28;20061;-68
2024/01/04 07:48:06;;;;;;;1.55;0.60;;;;;;;18.48;45.64;100111.03;5008534;28;20040;-68
2024/01/04 07:50:31;;;;;;;2.08;0.70;;;;;;;18.44;45.89;100113.16;5008026;28;20029;-69
2024/01/04 07:52:56;;;;;;;1.53;0.53;;;;;;;18.45;45.69;100119.25;5008261;28;20037;-68
2024/01/04 07:55:22;;;;;;;1.90;0.60;;;;;;;18.49;45.83;100131.19;5008664;28;20346;-68
2024/01/04 07:57:47;;;;;;;1.20;0.52;;;;;;;18.47;45.78;100133.97;5008433;28;20263;-68
2024/01/04 08:00:13;;;;;;;1.95;0.60;;;;;;;18.40;45.88;100119.66;5007771;28;20116;-68
2024/01/04 08:02:39;;;;;;;1.83;0.70;;;;;;;18.42;45.78;100135.34;5007274;28;20390;-68
2024/01/04 08:05:04;;;;;;;1.77;0.57;;;;;;;18.43;45.71;100137.03;5007678;28;20390;-68
2024/01/04 08:07:30;;;;;;;2.58;0.50;;;;;;;18.29;45.71;100125.13;5007987;28;20034;-68
2024/01/04 08:09:55;;;;;;;2.03;0.73;;;;;;;18.42;45.79;100144.13;5007783;28;20036;-68
2024/01/04 08:12:21;;;;;;;1.38;0.50;;;;;;;18.39;45.52;100147.03;5007788;28;20044;-68
2024/01/04 08:14:46;;;;;;;3.10;0.80;;;;;;;18.48;45.70;100154.09;5007459;28;20047;-68
2024/01/04 08:17:11;;;;;;;2.97;0.70;;;;;;;18.47;45.32;100168.25;5008076;28;20042;-67
2024/01/04 08:19:37;;;;;;;3.08;0.80;;;;;;;18.38;45.56;100153.28;5007400;28;21197;-68
2024/01/04 08:22:02;;;;;;;2.22;0.70;;;;;;;18.46;45.62;100161.31;5008380;28;20041;-68
2024/01/04 08:24:28;;;;;;;1.90;0.80;;;;;;;18.44;45.58;100159.81;5007835;28;20872;-68
2024/01/04 08:26:54;;;;;;;3.33;0.95;;;;;;;18.45;45.77;100164.94;5007610;28;20044;-70
2024/01/04 08:29:19;;;;;;;1.50;0.57;;;;;;;18.44;45.78;100163.28;5007634;28;20022;-69
2024/01/04 08:31:44;;;;;;;2.88;0.90;;;;;;;18.47;46.27;100162.16;5007728;28;20041;-69
2024/01/04 08:34:10;;;;;;;1.65;0.82;;;;;;;18.41;46.43;100157.47;5007199;28;20029;-69
2024/01/04 08:36:35;;;;;;;2.13;0.70;;;;;;;18.45;46.30;100164.94;5007268;28;20447;-68
2024/01/04 08:39:03;;;;;;;1.35;0.68;;;;;;;18.45;46.45;100157.03;5007038;28;20034;-67
2024/01/04 08:41:28;;;;;;;2.00;0.80;;;;;;;18.42;46.45;100162.59;5007185;28;20034;-68
2024/01/04 08:43:53;;;;;;;3.03;1.00;;;;;;;18.44;46.26;100165.91;5007262;28;20030;-69
2024/01/04 08:46:19;;;;;;;3.13;0.77;;;;;;;18.42;46.24;100164.38;5007044;28;20353;-68
2024/01/04 08:48:44;;;;;;;3.33;0.90;;;;;;;18.51;46.21;100187.28;5006915;28;20030;-68
2024/01/04 08:51:09;;;;;;;2.17;0.80;;;;;;;18.41;46.33;100170.66;5005748;28;20116;-68
2024/01/04 08:53:35;;;;;;;2.83;1.02;;;;;;;18.49;46.51;100186.59;5006874;28;20633;-69
2024/01/04 08:56:05;;;;;;;2.25;0.80;;;;;;;18.51;46.33;100184.63;5007220;28;20026;-69
2024/01/04 08:58:31;;;;;;;2.10;0.73;;;;;;;18.49;46.61;100179.50;5007337;28;21157;-69
2024/01/04 09:00:57;;;;;;;2.55;0.70;;;;;;;18.48;46.38;100187.56;5007993;28;20072;-70
2024/01/04 09:03:22;;;;;;;2.60;0.88;;;;;;;18.50;46.57;100188.28;5006958;28;20030;-69
2024/01/04 09:05:48;;;;;;;2.13;0.90;;;;;;;18.46;46.88;100190.34;5007678;28;20042;-69
2024/01/04 09:08:13;;;;;;;3.00;0.77;;;;;;;18.53;46.74;100202.97;5022415;28;20267;-69
2024/01/04 09:10:39;;;;;;;2.65;0.68;;;;;;;18.51;46.74;100200.47;5007551;28;20065;-68
2024/01/04 09:13:05;;;;;;;1.98;0.60;;;;;;;18.51;46.82;100195.19;5006959;28;20489;-69
2024/01/04 09:15:30;;;;;;;2.13;0.70;;;;;;;18.44;46.73;100192.28;5006618;28;20025;-68
2024/01/04 09:17:55;;;;;;;2.13;0.60;;;;;;;18.52;46.92;100209.19;5006848;28;20662;-66
2024/01/04 09:20:21;;;;;;;3.15;0.80;;;;;;;18.54;46.97;100210.75;5006621;28;20271;-68
2024/01/04 09:22:47;;;;;;;2.92;0.90;;;;;;;18.51;46.88;100218.94;5006629;28;20034;-68
2024/01/04 09:25:13;;;;;;;3.97;0.70;;;;;;;18.47;46.87;100207.03;5006327;28;20033;-68
2024/01/04 09:27:38;;;;;;;1.83;0.50;;;;;;;18.56;47.01;100221.97;5006624;28;20386;-68
2024/01/04 09:30:04;;;;;;;1.05;0.50;;;;;;;18.46;47.18;100205.34;5006458;28;20041;-68
2024/01/04 09:32:29;;;;;;;1.38;0.50;;;;;;;18.46;46.83;100216.72;5006873;28;20037;-69
2024/01/04 09:34:55;;;;;;;3.38;0.70;;;;;;;18.54;47.13;100231.84;5006260;28;20430;-69
2024/01/04 09:37:20;;;;;;;2.65;0.70;;;;;;;18.56;46.83;100240.44;5005319;28;20533;-69
2024/01/04 09:39:45;;;;;;;1.63;0.60;;;;;;;18.58;47.09;100237.66;5006091;28;20042;-67
2024/01/04 09:42:16;;;;;;;2.70;0.73;;;;;;;18.56;47.10;100239.63;5006466;28;20121;-68
2024/01/04 09:44:42;;;;;;;2.45;0.70;;;;;;;18.57;47.32;100250.03;5005789;28;20289;-68
2024/01/04 09:47:09;;;;;;;2.35;0.60;;;;;;;18.54;47.36;100249.50;5006163;28;20037;-67
2024/01/04 09:49:36;;;;;;;1.05;0.50;;;;;;;18.57;47.08;100250.03;5006525;28;20045;-68
2024/01/04 09:52:01;;;;;;;3.00;0.70;;;;;;;18.49;46.92;100244.63;5006494;28;20436;-67
2024/01/04 09:54:29;;;;;;;3.25;0.65;;;;;;;18.57;46.71;100260.59;5006210;28;20033;-67
2024/01/04 09:56:57;;;;;;;2.20;0.60;;;;;;;18.58;46.83;100266.69;5005959;28;20033;-68
2024/01/04 09:59:22;;;;;;;2.25;0.77;;;;;;;18.50;47.04;100256.88;5005955;28;20124;-67
2024/01/04 10:01:48;;;;;;;2.15;0.65;;;;;;;18.55;46.73;100273.09;5007130;28;20137;-67
2024/01/04 10:04:16;;;;;;;2.17;0.60;;;;;;;18.52;46.93;100273.38;5009919;28;20378;-68
2024/01/04 10:06:45;;;;;;;1.55;0.50;;;;;;;18.55;46.65;100274.88;5009876;28;20068;-67
2024/01/04 10:09:17;;;;;;;2.75;0.65;;;;;;;18.54;46.78;100276.72;5009686;28;20474;-68
2024/01/04 10:11:57;;;;;;;1.65;0.65;;;;;;;18.53;46.55;100276.84;5010047;28;20037;-68
2024/01/04 10:14:28;;;;;;;2.30;0.65;;;;;;;18.43;46.53;100275.03;5025139;28;20471;-67
2024/01/04 10:16:56;;;;;;;2.50;0.65;;;;;;;18.54;46.65;100286.44;5010107;28;20060;-69
2024/01/04 10:19:22;;;;;;;2.85;0.70;;;;;;;18.51;46.68;100289.34;5009672;28;20029;-68
2024/01/04 10:21:48;;;;;;;2.78;0.63;;;;;;;18.45;46.58;100286.31;5009965;28;20029;-68
2024/01/04 10:24:20;;;;;;;2.17;0.70;;;;;;;18.52;46.52;100291.84;5009158;28;20038;-68
2024/01/04 10:26:53;;;;;;;1.70;0.50;;;;;;;18.42;46.59;100281.31;5010011;28;20060;-69
2024/01/04 10:29:22;;;;;;;1.48;0.50;;;;;;;18.44;46.40;100281.19;5010116;28;20364;-67
2024/01/04 10:31:57;;;;;;;1.17;0.40;;;;;;;18.51;46.56;100295.47;5009810;28;20084;-67
2024/01/04 10:34:22;;;;;;;1.42;0.43;;;;;;;18.47;46.36;100291.44;5009795;28;20467;-68
2024/01/04 10:36:48;;;;;;;3.63;0.80;;;;;;;18.48;46.41;100290.47;5010021;28;20342;-68
2024/01/04 10:39:19;;;;;;;3.33;1.20;;;;;;;18.44;46.44;100286.44;5008496;28;20033;-68
2024/01/04 10:41:59;;;;;;;2.05;0.60;;;;;;;18.39;46.33;100278.94;5009905;28;20052;-68
2024/01/04 10:44:25;;;;;;;1.50;0.63;;;;;;;18.48;46.42;100299.22;5009571;28;20041;-68
2024/01/04 10:46:57;;;;;;;2.88;0.55;;;;;;;18.50;46.42;100304.38;5009753;28;20092;-68
2024/01/04 10:49:23;;;;;;;1.58;0.50;;;;;;;18.52;46.32;100301.56;5009647;28;20037;-68
2024/01/04 10:51:55;;;;;;;0.85;0.40;;;;;;;18.41;46.40;100290.19;5009416;28;20030;-68
2024/01/04 10:54:32;;;;;;;1.95;0.60;;;;;;;18.50;46.15;100299.09;5010093;28;20037;-68
2024/01/04 10:57:02;;;;;;;0.85;0.50;;;;;;;18.42;46.14;100286.59;5009387;28;20057;-68
2024/01/04 10:59:29;;;;;;;1.75;0.50;;;;;;;18.47;46.28;100296.72;5008257;28;20120;-67
2024/01/04 11:01:55;;;;;;;1.13;0.40;;;;;;;18.49;46.19;100305.31;5008645;28;20072;-69
2024/01/04 11:04:21;;;;;;;3.20;0.57;;;;;;;18.40;46.41;100291.16;5008996;28;20124;-68
2024/01/04 11:06:48;;;;;;;1.20;0.50;;;;;;;18.43;46.40;100287.41;5008901;28;20113;-69
2024/01/04 11:09:13;;;;;;;2.33;0.60;;;;;;;18.42;46.48;100291.88;5009268;28;20076;-69
2024/01/04 11:11:40;;;;;;;1.58;0.50;;;;;;;18.45;46.43;100303.94;5009454;28;20026;-69
2024/01/04 11:14:06;;;;;;;1.38;0.52;;;;;;;18.53;46.62;100319.06;5007754;28;20040;-68
2024/01/04 11:16:43;;;;;;;2.15;0.60;;;;;;;18.55;46.50;100311.84;5009197;28;20037;-69
2024/01/04 11:19:20;;;;;;;2.70;0.50;;;;;;;18.57;46.47;100312.56;5009181;28;20419;-68
2024/01/04 11:22:12;;;;;;;2.15;0.60;;;;;;;18.57;46.59;100312.56;5009592;28;20498;-68
2024/01/04 11:24:53;;;;;;;0.68;0.32;;;;;;;18.48;46.75;100303.66;5009444;28;20029;-68